sensor_id;sensor_type;location;lat;lon;timestamp;pressure;altitude;pressure_sealevel;temperature;humidity
46836;BME280;32573;51.290;6.926;2023-05-19T00:01:34;101110.72;;;11.92;100.00
46836;BME280;32573;51.290;6.926;2023-05-19T00:04:05;101121.94;;;11.87;100.00
46836;BME280;32573;51.290;6.926;2023-05-19T00:06:34;101113.91;;;11.84;100.00
46836;BME280;32573;51.290;6.926;2023-05-19T00:09:06;101112.00;;;11.80;100.00
46836;BME280;32573;51.290;6.926;2023-05-19T00:11:37;101112.72;;;11.76;100.00
46836;BME280;32573;51.290;6.926;2023-05-19T00:14:07;101114.28;;;11.71;100.00
46836;BME280;32573;51.290;6.926;2023-05-19T00:16:37;101111.53;;;11.68;100.00
46836;BME280;32573;51.290;6.926;2023-05-19T00:19:05;101114.88;;;11.64;100.00
46836;BME280;32573;51.290;6.926;2023-05-19T00:21:37;101110.34;;;11.60;100.00
46836;BME280;32573;51.290;6.926;2023-05-19T00:24:07;101114.59;;;11.56;100.00
46836;BME280;32573;51.290;6.926;2023-05-19T00:26:36;101122.25;;;11.52;100.00
46836;BME280;32573;51.290;6.926;2023-05-19T00:29:06;101120.34;;;11.48;100.00
46836;BME280;32573;51.290;6.926;2023-05-19T00:31:34;101116.66;;;11.42;100.00
46836;BME280;32573;51.290;6.926;2023-05-19T00:34:03;101117.38;;;11.38;100.00
46836;BME280;32573;51.290;6.926;2023-05-19T00:36:31;101115.34;;;11.31;100.00
46836;BME280;32573;51.290;6.926;2023-05-19T00:39:00;101115.03;;;11.23;100.00
46836;BME280;32573;51.290;6.926;2023-05-19T00:41:30;101113.94;;;11.18;100.00
46836;BME280;32573;51.290;6.926;2023-05-19T00:43:59;101117.25;;;11.14;100.00
46836;BME280;32573;51.290;6.926;2023-05-19T00:46:27;101112.59;;;11.07;100.00
46836;BME280;32573;51.290;6.926;2023-05-19T00:48:57;101115.03;;;11.02;100.00
46836;BME280;32573;51.290;6.926;2023-05-19T00:51:27;101112.97;;;10.95;100.00
46836;BME280;32573;51.290;6.926;2023-05-19T00:53:56;101110.13;;;10.89;100.00
46836;BME280;32573;51.290;6.926;2023-05-19T00:56:25;101115.16;;;10.85;100.00
46836;BME280;32573;51.290;6.926;2023-05-19T00:58:56;101110.56;;;10.79;100.00
46836;BME280;32573;51.290;6.926;2023-05-19T01:01:26;101109.53;;;10.75;100.00
46836;BME280;32573;51.290;6.926;2023-05-19T01:03:55;101104.94;;;10.70;100.00
46836;BME280;32573;51.290;6.926;2023-05-19T01:06:27;101107.28;;;10.64;100.00
46836;BME280;32573;51.290;6.926;2023-05-19T01:08:56;101104.47;;;10.59;100.00
46836;BME280;32573;51.290;6.926;2023-05-19T01:11:25;101102.50;;;10.53;100.00
46836;BME280;32573;51.290;6.926;2023-05-19T01:13:53;101105.66;;;10.46;100.00
46836;BME280;32573;51.290;6.926;2023-05-19T01:16:29;101099.38;;;10.43;100.00
46836;BME280;32573;51.290;6.926;2023-05-19T01:19:02;101100.03;;;10.37;100.00
46836;BME280;32573;51.290;6.926;2023-05-19T01:22:01;101097.97;;;10.30;100.00
46836;BME280;32573;51.290;6.926;2023-05-19T01:25:03;101098.47;;;10.23;100.00
46836;BME280;32573;51.290;6.926;2023-05-19T01:30:52;101101.31;;;10.08;100.00
46836;BME280;32573;51.290;6.926;2023-05-19T01:33:23;101096.69;;;10.02;100.00
46836;BME280;32573;51.290;6.926;2023-05-19T01:35:52;101098.22;;;9.97;100.00
46836;BME280;32573;51.290;6.926;2023-05-19T01:38:24;101095.38;;;9.92;100.00
46836;BME280;32573;51.290;6.926;2023-05-19T01:40:55;101092.56;;;9.88;100.00
46836;BME280;32573;51.290;6.926;2023-05-19T01:43:25;101091.53;;;9.84;100.00
46836;BME280;32573;51.290;6.926;2023-05-19T01:45:56;101092.16;;;9.79;100.00
46836;BME280;32573;51.290;6.926;2023-05-19T01:48:26;101097.16;;;9.74;100.00
46836;BME280;32573;51.290;6.926;2023-05-19T01:50:56;101099.56;;;9.69;100.00
46836;BME280;32573;51.290;6.926;2023-05-19T01:53:27;101107.19;;;9.65;100.00
46836;BME280;32573;51.290;6.926;2023-05-19T01:55:56;101107.84;;;9.61;100.00
46836;BME280;32573;51.290;6.926;2023-05-19T01:58:30;101111.97;;;9.56;100.00
46836;BME280;32573;51.290;6.926;2023-05-19T02:01:11;101112.59;;;9.50;100.00
46836;BME280;32573;51.290;6.926;2023-05-19T02:03:59;101110.59;;;9.44;100.00
46836;BME280;32573;51.290;6.926;2023-05-19T02:06:36;101111.19;;;9.39;100.00
46836;BME280;32573;51.290;6.926;2023-05-19T02:09:15;101110.13;;;9.35;100.00
46836;BME280;32573;51.290;6.926;2023-05-19T02:11:51;101112.59;;;9.32;100.00
46836;BME280;32573;51.290;6.926;2023-05-19T02:14:25;101110.75;;;9.29;100.00
46836;BME280;32573;51.290;6.926;2023-05-19T02:16:59;101121.19;;;9.29;100.00
46836;BME280;32573;51.290;6.926;2023-05-19T02:19:31;101111.56;;;9.28;100.00
46836;BME280;32573;51.290;6.926;2023-05-19T02:22:00;101115.88;;;9.28;100.00
46836;BME280;32573;51.290;6.926;2023-05-19T02:24:29;101116.63;;;9.25;100.00
46836;BME280;32573;51.290;6.926;2023-05-19T02:26:58;101110.59;;;9.26;100.00
46836;BME280;32573;51.290;6.926;2023-05-19T02:29:30;101106.25;;;9.27;100.00
46836;BME280;32573;51.290;6.926;2023-05-19T02:32:00;101110.59;;;9.26;100.00
46836;BME280;32573;51.290;6.926;2023-05-19T02:34:29;101099.31;;;9.27;100.00
46836;BME280;32573;51.290;6.926;2023-05-19T02:36:58;101103.75;;;9.28;100.00
46836;BME280;32573;51.290;6.926;2023-05-19T02:39:31;101101.94;;;9.27;100.00
46836;BME280;32573;51.290;6.926;2023-05-19T02:42:01;101097.59;;;9.28;100.00
46836;BME280;32573;51.290;6.926;2023-05-19T02:44:30;101103.75;;;9.28;100.00
46836;BME280;32573;51.290;6.926;2023-05-19T02:46:59;101100.19;;;9.28;100.00
46836;BME280;32573;51.290;6.926;2023-05-19T02:49:29;101096.69;;;9.27;100.00
46836;BME280;32573;51.290;6.926;2023-05-19T02:52:02;101094.94;;;9.26;100.00
46836;BME280;32573;51.290;6.926;2023-05-19T02:54:31;101097.53;;;9.26;100.00
46836;BME280;32573;51.290;6.926;2023-05-19T02:57:00;101090.44;;;9.24;100.00
46836;BME280;32573;51.290;6.926;2023-05-19T02:59:29;101093.13;;;9.25;100.00
46836;BME280;32573;51.290;6.926;2023-05-19T03:01:59;101077.31;;;9.22;100.00
46836;BME280;32573;51.290;6.926;2023-05-19T03:04:31;101077.31;;;9.22;100.00
46836;BME280;32573;51.290;6.926;2023-05-19T03:07:09;101079.91;;;9.22;100.00
46836;BME280;32573;51.290;6.926;2023-05-19T03:09:39;101082.44;;;9.21;100.00
46836;BME280;32573;51.290;6.926;2023-05-19T03:12:11;101084.16;;;9.20;100.00
46836;BME280;32573;51.290;6.926;2023-05-19T03:14:40;101079.78;;;9.19;100.00
46836;BME280;32573;51.290;6.926;2023-05-19T03:17:08;101080.53;;;9.17;100.00
46836;BME280;32573;51.290;6.926;2023-05-19T03:19:38;101088.34;;;9.17;100.00
46836;BME280;32573;51.290;6.926;2023-05-19T03:22:07;101089.91;;;9.13;100.00
46836;BME280;32573;51.290;6.926;2023-05-19T03:24:36;101086.34;;;9.11;100.00
46836;BME280;32573;51.290;6.926;2023-05-19T03:27:06;101089.75;;;9.10;100.00
46836;BME280;32573;51.290;6.926;2023-05-19T03:29:36;101080.94;;;9.08;100.00
46836;BME280;32573;51.290;6.926;2023-05-19T03:32:05;101085.19;;;9.06;100.00
46836;BME280;32573;51.290;6.926;2023-05-19T03:34:35;101085.94;;;9.03;100.00
46836;BME280;32573;51.290;6.926;2023-05-19T03:37:05;101087.63;;;9.01;100.00
46836;BME280;32573;51.290;6.926;2023-05-19T03:39:36;101078.66;;;8.96;100.00
46836;BME280;32573;51.290;6.926;2023-05-19T03:42:05;101087.25;;;8.94;100.00
46836;BME280;32573;51.290;6.926;2023-05-19T03:44:35;101083.66;;;8.92;100.00
46836;BME280;32573;51.290;6.926;2023-05-19T03:47:04;101082.59;;;8.88;100.00
46836;BME280;32573;51.290;6.926;2023-05-19T03:49:51;101079.91;;;8.87;100.00
46836;BME280;32573;51.290;6.926;2023-05-19T03:52:40;101083.31;;;8.85;100.00
46836;BME280;32573;51.290;6.926;2023-05-19T03:55:22;101085.94;;;8.85;100.00
46836;BME280;32573;51.290;6.926;2023-05-19T03:57:51;101084.16;;;8.84;100.00
46836;BME280;32573;51.290;6.926;2023-05-19T04:00:20;101082.34;;;8.83;100.00
46836;BME280;32573;51.290;6.926;2023-05-19T04:02:50;101091.84;;;8.81;100.00
46836;BME280;32573;51.290;6.926;2023-05-19T04:05:18;101086.63;;;8.81;100.00
46836;BME280;32573;51.290;6.926;2023-05-19T04:07:48;101091.84;;;8.81;100.00
46836;BME280;32573;51.290;6.926;2023-05-19T04:10:17;101091.03;;;8.82;100.00
46836;BME280;32573;51.290;6.926;2023-05-19T04:12:47;101090.19;;;8.83;100.00
46836;BME280;32573;51.290;6.926;2023-05-19T04:15:16;101088.50;;;8.84;100.00
46836;BME280;32573;51.290;6.926;2023-05-19T04:17:45;101088.50;;;8.84;100.00
46836;BME280;32573;51.290;6.926;2023-05-19T04:20:14;101086.78;;;8.84;100.00
46836;BME280;32573;51.290;6.926;2023-05-19T04:22:42;101087.56;;;8.83;100.00
46836;BME280;32573;51.290;6.926;2023-05-19T04:25:12;101092.78;;;8.83;100.00
46836;BME280;32573;51.290;6.926;2023-05-19T04:27:41;101094.47;;;8.81;100.00
46836;BME280;32573;51.290;6.926;2023-05-19T04:30:10;101082.22;;;8.80;100.00
46836;BME280;32573;51.290;6.926;2023-05-19T04:32:45;101086.63;;;8.81;100.00
46836;BME280;32573;51.290;6.926;2023-05-19T04:35:14;101089.25;;;8.81;100.00
46836;BME280;32573;51.290;6.926;2023-05-19T04:37:43;101093.53;;;8.81;100.00
46836;BME280;32573;51.290;6.926;2023-05-19T04:40:15;101091.84;;;8.81;100.00
46836;BME280;32573;51.290;6.926;2023-05-19T04:42:44;101084.91;;;8.82;100.00
46836;BME280;32573;51.290;6.926;2023-05-19T04:45:13;101093.72;;;8.84;100.00
46836;BME280;32573;51.290;6.926;2023-05-19T04:47:45;101087.56;;;8.83;100.00
46836;BME280;32573;51.290;6.926;2023-05-19T04:50:15;101099.81;;;8.84;100.00
46836;BME280;32573;51.290;6.926;2023-05-19T04:52:43;101096.38;;;8.85;100.00
46836;BME280;32573;51.290;6.926;2023-05-19T04:55:13;101100.84;;;8.88;100.00
46836;BME280;32573;51.290;6.926;2023-05-19T04:57:45;101102.72;;;8.91;100.00
46836;BME280;32573;51.290;6.926;2023-05-19T05:00:14;101099.38;;;8.93;100.00
46836;BME280;32573;51.290;6.926;2023-05-19T05:02:57;101097.81;;;8.97;100.00
46836;BME280;32573;51.290;6.926;2023-05-19T05:05:29;101097.13;;;9.01;100.00
46836;BME280;32573;51.290;6.926;2023-05-19T05:07:57;101096.47;;;9.05;100.00
46836;BME280;32573;51.290;6.926;2023-05-19T05:10:29;101088.78;;;9.08;100.00
46836;BME280;32573;51.290;6.926;2023-05-19T05:13:01;101094.25;;;9.13;100.00
46836;BME280;32573;51.290;6.926;2023-05-19T05:15:30;101091.78;;;9.16;100.00
46836;BME280;32573;51.290;6.926;2023-05-19T05:18:01;101094.59;;;9.20;100.00
46836;BME280;32573;51.290;6.926;2023-05-19T05:20:31;101095.69;;;9.24;100.00
46836;BME280;32573;51.290;6.926;2023-05-19T05:23:03;101102.91;;;9.29;100.00
46836;BME280;32573;51.290;6.926;2023-05-19T05:25:34;101102.25;;;9.34;100.00
46836;BME280;32573;51.290;6.926;2023-05-19T05:28:05;101098.03;;;9.37;100.00
46836;BME280;32573;51.290;6.926;2023-05-19T05:30:39;101099.16;;;9.42;100.00
46836;BME280;32573;51.290;6.926;2023-05-19T05:33:10;101093.31;;;9.48;100.00
46836;BME280;32573;51.290;6.926;2023-05-19T05:35:41;101095.25;;;9.52;100.00
46836;BME280;32573;51.290;6.926;2023-05-19T05:38:18;101097.34;;;9.59;100.00
46836;BME280;32573;51.290;6.926;2023-05-19T05:40:50;101100.09;;;9.62;100.00
46836;BME280;32573;51.290;6.926;2023-05-19T05:43:21;101093.38;;;9.67;100.00
46836;BME280;32573;51.290;6.926;2023-05-19T05:45:57;101093.66;;;9.74;100.00
46836;BME280;32573;51.290;6.926;2023-05-19T05:48:26;101092.16;;;9.79;100.00
46836;BME280;32573;51.290;6.926;2023-05-19T05:50:56;101087.28;;;9.86;100.00
46836;BME280;32573;51.290;6.926;2023-05-19T05:53:31;101091.03;;;9.93;100.00
46836;BME280;32573;51.290;6.926;2023-05-19T05:56:04;101091.34;;;9.99;100.00
46836;BME280;32573;51.290;6.926;2023-05-19T05:58:44;101096.03;;;10.06;100.00
46836;BME280;32573;51.290;6.926;2023-05-19T06:01:16;101093.63;;;10.11;100.00
46836;BME280;32573;51.290;6.926;2023-05-19T06:03:45;101093.03;;;10.18;100.00
46836;BME280;32573;51.290;6.926;2023-05-19T06:06:19;101087.22;;;10.24;100.00
46836;BME280;32573;51.290;6.926;2023-05-19T06:08:48;101089.31;;;10.31;100.00
46836;BME280;32573;51.290;6.926;2023-05-19T06:11:18;101078.19;;;10.36;100.00
46836;BME280;32573;51.290;6.926;2023-05-19T06:13:49;101083.69;;;10.43;100.00
46836;BME280;32573;51.290;6.926;2023-05-19T06:16:38;101079.63;;;10.49;100.00
46836;BME280;32573;51.290;6.926;2023-05-19T06:19:08;101074.63;;;10.55;100.00
46836;BME280;32573;51.290;6.926;2023-05-19T06:21:37;101080.16;;;10.62;100.00
46836;BME280;32573;51.290;6.926;2023-05-19T06:24:06;101075.16;;;10.68;100.00
46836;BME280;32573;51.290;6.926;2023-05-19T06:26:35;101078.06;;;10.74;100.00
46836;BME280;32573;51.290;6.926;2023-05-19T06:29:06;101077.47;;;10.81;100.00
46836;BME280;32573;51.290;6.926;2023-05-19T06:31:35;101073.38;;;10.88;100.00
46836;BME280;32573;51.290;6.926;2023-05-19T06:34:09;101080.66;;;10.95;100.00
46836;BME280;32573;51.290;6.926;2023-05-19T06:36:39;101078.34;;;11.02;100.00
46836;BME280;32573;51.290;6.926;2023-05-19T06:39:09;101072.53;;;11.10;100.00
46836;BME280;32573;51.290;6.926;2023-05-19T06:41:41;101077.19;;;11.17;100.00
46836;BME280;32573;51.290;6.926;2023-05-19T06:44:24;101080.88;;;11.22;100.00
46836;BME280;32573;51.290;6.926;2023-05-19T06:46:52;101076.78;;;11.29;100.00
46836;BME280;32573;51.290;6.926;2023-05-19T06:49:21;101080.59;;;11.37;100.00
46836;BME280;32573;51.290;6.926;2023-05-19T06:51:50;101079.94;;;11.42;100.00
46836;BME280;32573;51.290;6.926;2023-05-19T06:54:19;101081.97;;;11.50;100.00
46836;BME280;32573;51.290;6.926;2023-05-19T06:56:48;101082.28;;;11.57;100.00
46836;BME280;32573;51.290;6.926;2023-05-19T06:59:17;101080.78;;;11.64;100.00
46836;BME280;32573;51.290;6.926;2023-05-19T07:01:49;101084.56;;;11.71;100.00
46836;BME280;32573;51.290;6.926;2023-05-19T07:04:18;101088.28;;;11.77;100.00
46836;BME280;32573;51.290;6.926;2023-05-19T07:06:47;101085.94;;;11.85;100.00
46836;BME280;32573;51.290;6.926;2023-05-19T07:09:16;101085.38;;;11.92;100.00
46836;BME280;32573;51.290;6.926;2023-05-19T07:11:46;101089.16;;;12.00;100.00
46836;BME280;32573;51.290;6.926;2023-05-19T07:14:15;101083.31;;;12.07;100.00
46836;BME280;32573;51.290;6.926;2023-05-19T07:16:44;101081.81;;;12.14;100.00
46836;BME280;32573;51.290;6.926;2023-05-19T07:19:14;101085.56;;;12.21;100.00
46836;BME280;32573;51.290;6.926;2023-05-19T07:21:45;101084.91;;;12.28;100.00
46836;BME280;32573;51.290;6.926;2023-05-19T07:24:14;101080.78;;;12.35;100.00
46836;BME280;32573;51.290;6.926;2023-05-19T07:26:43;101083.69;;;12.42;100.00
46836;BME280;32573;51.290;6.926;2023-05-19T07:29:13;101083.06;;;12.49;100.00
46836;BME280;32573;51.290;6.926;2023-05-19T07:31:42;101076.34;;;12.58;100.00
46836;BME280;32573;51.290;6.926;2023-05-19T07:34:10;101076.56;;;12.64;100.00
46836;BME280;32573;51.290;6.926;2023-05-19T07:36:40;101076.75;;;12.70;100.00
46836;BME280;32573;51.290;6.926;2023-05-19T07:39:08;101073.50;;;12.77;100.00
46836;BME280;32573;51.290;6.926;2023-05-19T07:41:38;101079.88;;;12.84;100.00
46836;BME280;32573;51.290;6.926;2023-05-19T07:44:06;101074.81;;;12.90;100.00
46836;BME280;32573;51.290;6.926;2023-05-19T07:46:36;101080.28;;;12.96;100.00
46836;BME280;32573;51.290;6.926;2023-05-19T07:49:06;101071.75;;;13.03;100.00
46836;BME280;32573;51.290;6.926;2023-05-19T07:51:35;101066.63;;;13.08;100.00
46836;BME280;32573;51.290;6.926;2023-05-19T07:54:05;101061.66;;;13.15;100.00
46836;BME280;32573;51.290;6.926;2023-05-19T07:56:34;101060.09;;;13.22;100.00
46836;BME280;32573;51.290;6.926;2023-05-19T07:59:03;101058.59;;;13.29;100.00
46836;BME280;32573;51.290;6.926;2023-05-19T08:01:32;101057.06;;;13.37;100.00
46836;BME280;32573;51.290;6.926;2023-05-19T08:04:00;101067.88;;;13.46;100.00
46836;BME280;32573;51.290;6.926;2023-05-19T08:06:29;101055.84;;;13.54;100.00
46836;BME280;32573;51.290;6.926;2023-05-19T08:08:58;101056.94;;;13.61;100.00
46836;BME280;32573;51.290;6.926;2023-05-19T08:11:28;101052.72;;;13.68;100.00
46836;BME280;32573;51.290;6.926;2023-05-19T08:13:57;101048.63;;;13.76;100.00
46836;BME280;32573;51.290;6.926;2023-05-19T08:16:28;101053.22;;;13.83;100.00
46836;BME280;32573;51.290;6.926;2023-05-19T08:18:57;101052.56;;;13.92;100.00
46836;BME280;32573;51.290;6.926;2023-05-19T08:21:29;101055.41;;;13.99;100.00
46836;BME280;32573;51.290;6.926;2023-05-19T08:24:01;101046.84;;;14.07;100.00
46836;BME280;32573;51.290;6.926;2023-05-19T08:26:31;101036.53;;;14.14;100.00
46836;BME280;32573;51.290;6.926;2023-05-19T08:29:03;101049.00;;;14.21;100.00
46836;BME280;32573;51.290;6.926;2023-05-19T08:31:31;101039.56;;;14.28;100.00
46836;BME280;32573;51.290;6.926;2023-05-19T08:34:01;101041.50;;;14.35;100.00
46836;BME280;32573;51.290;6.926;2023-05-19T08:36:30;101033.75;;;14.41;100.00
46836;BME280;32573;51.290;6.926;2023-05-19T08:39:00;101023.34;;;14.48;100.00
46836;BME280;32573;51.290;6.926;2023-05-19T08:41:28;101020.06;;;14.55;100.00
46836;BME280;32573;51.290;6.926;2023-05-19T08:43:58;101027.28;;;14.62;100.00
46836;BME280;32573;51.290;6.926;2023-05-19T08:46:28;101020.38;;;14.67;100.00
46836;BME280;32573;51.290;6.926;2023-05-19T08:49:03;101021.50;;;14.75;100.00
46836;BME280;32573;51.290;6.926;2023-05-19T08:51:39;101016.41;;;14.83;100.00
46836;BME280;32573;51.290;6.926;2023-05-19T08:54:13;101016.59;;;14.91;100.00
46836;BME280;32573;51.290;6.926;2023-05-19T08:56:43;101021.09;;;14.96;100.00
46836;BME280;32573;51.290;6.926;2023-05-19T08:59:14;101016.88;;;15.03;100.00
46836;BME280;32573;51.290;6.926;2023-05-19T09:01:44;101012.66;;;15.11;100.00
46836;BME280;32573;51.290;6.926;2023-05-19T09:04:14;101018.06;;;15.17;100.00
46836;BME280;32573;51.290;6.926;2023-05-19T09:06:44;101008.50;;;15.22;100.00
46836;BME280;32573;51.290;6.926;2023-05-19T09:09:13;101012.13;;;15.27;100.00
46836;BME280;32573;51.290;6.926;2023-05-19T09:11:44;101004.38;;;15.34;100.00
46836;BME280;32573;51.290;6.926;2023-05-19T09:14:15;101001.88;;;15.40;100.00
46836;BME280;32573;51.290;6.926;2023-05-19T09:16:44;100999.31;;;15.44;100.00
46836;BME280;32573;51.290;6.926;2023-05-19T09:19:18;100998.50;;;15.47;100.00
46836;BME280;32573;51.290;6.926;2023-05-19T09:21:57;100989.03;;;15.55;100.00
46836;BME280;32573;51.290;6.926;2023-05-19T09:24:27;100995.31;;;15.62;100.00
46836;BME280;32573;51.290;6.926;2023-05-19T09:26:56;100999.94;;;15.70;100.00
46836;BME280;32573;51.290;6.926;2023-05-19T09:29:29;101000.88;;;15.74;100.00
46836;BME280;32573;51.290;6.926;2023-05-19T09:31:58;100992.16;;;15.80;100.00
46836;BME280;32573;51.290;6.926;2023-05-19T09:34:33;100984.41;;;15.86;100.00
46836;BME280;32573;51.290;6.926;2023-05-19T09:37:02;100983.66;;;15.93;100.00
46836;BME280;32573;51.290;6.926;2023-05-19T09:39:31;100983.81;;;16.02;100.00
46836;BME280;32573;51.290;6.926;2023-05-19T09:42:03;100988.34;;;16.09;100.00
46836;BME280;32573;51.290;6.926;2023-05-19T09:44:34;100978.81;;;16.16;100.00
46836;BME280;32573;51.290;6.926;2023-05-19T09:47:03;100980.66;;;16.22;100.00
46836;BME280;32573;51.290;6.926;2023-05-19T09:49:31;100977.31;;;16.30;100.00
46836;BME280;32573;51.290;6.926;2023-05-19T09:52:02;100964.19;;;16.35;100.00
46836;BME280;32573;51.290;6.926;2023-05-19T09:54:33;100983.69;;;16.43;100.00
46836;BME280;32573;51.290;6.926;2023-05-19T09:57:03;100979.41;;;16.51;100.00
46836;BME280;32573;51.290;6.926;2023-05-19T09:59:36;100970.69;;;16.57;100.00
46836;BME280;32573;51.290;6.926;2023-05-19T10:02:12;100964.56;;;16.59;100.00
46836;BME280;32573;51.290;6.926;2023-05-19T10:04:43;100961.13;;;16.64;100.00
46836;BME280;32573;51.290;6.926;2023-05-19T10:07:14;100957.66;;;16.68;100.00
46836;BME280;32573;51.290;6.926;2023-05-19T10:09:47;100960.38;;;16.74;100.00
46836;BME280;32573;51.290;6.926;2023-05-19T10:12:18;100959.63;;;16.78;100.00
46836;BME280;32573;51.290;6.926;2023-05-19T10:14:50;100961.44;;;16.82;100.00
46836;BME280;32573;51.290;6.926;2023-05-19T10:17:23;100963.31;;;16.89;100.00
46836;BME280;32573;51.290;6.926;2023-05-19T10:19:53;100965.19;;;16.96;100.00
46836;BME280;32573;51.290;6.926;2023-05-19T10:22:23;100975.00;;;17.03;100.00
46836;BME280;32573;51.290;6.926;2023-05-19T10:24:52;100972.41;;;17.10;100.00
46836;BME280;32573;51.290;6.926;2023-05-19T10:27:22;100973.41;;;17.15;100.00
46836;BME280;32573;51.290;6.926;2023-05-19T10:30:05;100967.28;;;17.22;100.00
46836;BME280;32573;51.290;6.926;2023-05-19T10:32:40;100959.44;;;17.27;100.00
46836;BME280;32573;51.290;6.926;2023-05-19T10:38:17;100948.81;;;17.23;100.00
46836;BME280;32573;51.290;6.926;2023-05-19T10:40:59;100955.00;;;17.25;100.00
46836;BME280;32573;51.290;6.926;2023-05-19T10:43:43;100943.66;;;17.34;100.00
46836;BME280;32573;51.290;6.926;2023-05-19T10:46:16;100948.13;;;17.38;100.00
46836;BME280;32573;51.290;6.926;2023-05-19T10:48:46;100949.88;;;17.39;100.00
46836;BME280;32573;51.290;6.926;2023-05-19T10:51:15;100952.59;;;17.42;100.00
46836;BME280;32573;51.290;6.926;2023-05-19T10:53:44;100943.84;;;17.50;100.00
46836;BME280;32573;51.290;6.926;2023-05-19T10:56:27;100947.50;;;17.58;100.00
46836;BME280;32573;51.290;6.926;2023-05-19T10:58:57;100937.88;;;17.66;100.00
46836;BME280;32573;51.290;6.926;2023-05-19T11:01:31;100938.84;;;17.73;100.00
46836;BME280;32573;51.290;6.926;2023-05-19T11:04:05;100939.84;;;17.82;100.00
46836;BME280;32573;51.290;6.926;2023-05-19T11:06:38;100939.91;;;17.88;100.00
46836;BME280;32573;51.290;6.926;2023-05-19T11:09:12;100938.22;;;17.97;100.00
46836;BME280;32573;51.290;6.926;2023-05-19T11:11:44;100933.91;;;18.06;100.00
46836;BME280;32573;51.290;6.926;2023-05-19T11:14:15;100939.28;;;18.13;100.00
46836;BME280;32573;51.290;6.926;2023-05-19T11:16:48;100939.34;;;18.17;100.00
46836;BME280;32573;51.290;6.926;2023-05-19T11:19:18;100934.97;;;18.25;100.00
46836;BME280;32573;51.290;6.926;2023-05-19T11:21:47;100927.97;;;18.33;100.00
46836;BME280;32573;51.290;6.926;2023-05-19T11:24:35;100937.78;;;18.42;100.00
46836;BME280;32573;51.290;6.926;2023-05-19T11:27:20;100920.19;;;18.53;100.00
46836;BME280;32573;51.290;6.926;2023-05-19T11:29:50;100919.38;;;18.64;100.00
46836;BME280;32573;51.290;6.926;2023-05-19T11:32:21;100922.94;;;18.69;100.00
46836;BME280;32573;51.290;6.926;2023-05-19T11:34:49;100921.16;;;18.69;100.00
46836;BME280;32573;51.290;6.926;2023-05-19T11:37:18;100927.38;;;18.71;100.00
46836;BME280;32573;51.290;6.926;2023-05-19T11:39:48;100926.56;;;18.79;100.00
46836;BME280;32573;51.290;6.926;2023-05-19T11:42:22;100925.78;;;18.90;100.00
46836;BME280;32573;51.290;6.926;2023-05-19T11:44:55;100921.38;;;18.92;100.00
46836;BME280;32573;51.290;6.926;2023-05-19T11:47:26;100916.09;;;19.00;100.00
46836;BME280;32573;51.290;6.926;2023-05-19T11:49:54;100917.06;;;19.10;100.00
46836;BME280;32573;51.290;6.926;2023-05-19T11:52:24;100912.69;;;19.20;100.00
46836;BME280;32573;51.290;6.926;2023-05-19T11:54:53;100906.50;;;19.25;100.00
46836;BME280;32573;51.290;6.926;2023-05-19T11:57:25;100913.59;;;19.34;100.00
46836;BME280;32573;51.290;6.926;2023-05-19T11:59:55;100896.81;;;19.38;100.00
46836;BME280;32573;51.290;6.926;2023-05-19T12:02:25;100905.69;;;19.43;100.00
46836;BME280;32573;51.290;6.926;2023-05-19T12:04:54;100896.84;;;19.50;100.00
46836;BME280;32573;51.290;6.926;2023-05-19T12:07:23;100903.09;;;19.63;100.00
46836;BME280;32573;51.290;6.926;2023-05-19T12:09:53;100897.81;;;19.71;100.00
46836;BME280;32573;51.290;6.926;2023-05-19T12:12:22;100901.41;;;19.82;100.00
46836;BME280;32573;51.290;6.926;2023-05-19T12:14:52;100888.09;;;19.94;100.00
46836;BME280;32573;51.290;6.926;2023-05-19T12:17:21;100901.44;;;20.08;100.00
46836;BME280;32573;51.290;6.926;2023-05-19T12:19:53;100886.38;;;20.21;100.00
46836;BME280;32573;51.290;6.926;2023-05-19T12:22:24;100889.00;;;20.32;100.00
46836;BME280;32573;51.290;6.926;2023-05-19T12:24:53;100885.50;;;20.42;100.00
46836;BME280;32573;51.290;6.926;2023-05-19T12:27:23;100886.38;;;20.45;100.00
46836;BME280;32573;51.290;6.926;2023-05-19T12:29:53;100877.50;;;20.45;100.00
46836;BME280;32573;51.290;6.926;2023-05-19T12:32:24;100873.94;;;20.41;100.00
46836;BME280;32573;51.290;6.926;2023-05-19T12:34:54;100871.31;;;20.37;96.98
46836;BME280;32573;51.290;6.926;2023-05-19T12:37:25;100862.44;;;20.30;92.94
46836;BME280;32573;51.290;6.926;2023-05-19T12:39:56;100862.44;;;20.27;97.92
46836;BME280;32573;51.290;6.926;2023-05-19T12:42:26;100874.84;;;20.39;100.00
46836;BME280;32573;51.290;6.926;2023-05-19T12:44:58;100870.38;;;20.53;100.00
46836;BME280;32573;51.290;6.926;2023-05-19T12:47:30;100863.28;;;20.69;100.00
46836;BME280;32573;51.290;6.926;2023-05-19T12:50:04;100864.16;;;20.85;100.00
46836;BME280;32573;51.290;6.926;2023-05-19T12:52:40;100857.91;;;20.97;100.00
46836;BME280;32573;51.290;6.926;2023-05-19T12:55:10;100856.13;;;21.02;100.00
46836;BME280;32573;51.290;6.926;2023-05-19T12:57:40;100857.84;;;21.09;98.79
46836;BME280;32573;51.290;6.926;2023-05-19T13:00:13;100843.59;;;21.16;100.00
46836;BME280;32573;51.290;6.926;2023-05-19T13:02:54;100853.34;;;21.29;100.00
46836;BME280;32573;51.290;6.926;2023-05-19T13:05:26;100846.19;;;21.41;100.00
46836;BME280;32573;51.290;6.926;2023-05-19T13:07:57;100855.03;;;21.52;100.00
46836;BME280;32573;51.290;6.926;2023-05-19T13:10:27;100856.66;;;21.71;100.00